sensor_id;sensor_type;location;lat;lon;timestamp;P1;durP1;ratioP1;P2;durP2;ratioP2
62071;SDS011;48031;48.542;13.232;2023-03-15T00:00:53;1.85;;;1.50;;
62071;SDS011;48031;48.542;13.232;2023-03-15T00:04:56;2.30;;;1.45;;
62071;SDS011;48031;48.542;13.232;2023-03-15T00:08:58;2.60;;;1.40;;
62071;SDS011;48031;48.542;13.232;2023-03-15T00:13:03;1.83;;;1.42;;
62071;SDS011;48031;48.542;13.232;2023-03-15T00:17:05;4.25;;;1.52;;
62071;SDS011;48031;48.542;13.232;2023-03-15T00:21:07;2.50;;;1.50;;
62071;SDS011;48031;48.542;13.232;2023-03-15T00:25:08;3.33;;;1.60;;
62071;SDS011;48031;48.542;13.232;2023-03-15T00:29:11;2.60;;;1.42;;
62071;SDS011;48031;48.542;13.232;2023-03-15T00:33:13;5.80;;;1.67;;
62071;SDS011;48031;48.542;13.232;2023-03-15T00:37:15;2.95;;;1.55;;
62071;SDS011;48031;48.542;13.232;2023-03-15T00:41:18;2.30;;;1.30;;
62071;SDS011;48031;48.542;13.232;2023-03-15T00:45:20;5.45;;;1.83;;
62071;SDS011;48031;48.542;13.232;2023-03-15T00:49:22;1.90;;;1.70;;
62071;SDS011;48031;48.542;13.232;2023-03-15T00:53:24;1.80;;;1.52;;
62071;SDS011;48031;48.542;13.232;2023-03-15T00:57:26;3.75;;;1.73;;
62071;SDS011;48031;48.542;13.232;2023-03-15T01:01:28;2.60;;;1.70;;
62071;SDS011;48031;48.542;13.232;2023-03-15T01:05:31;3.42;;;1.77;;
62071;SDS011;48031;48.542;13.232;2023-03-15T01:09:33;2.72;;;1.42;;
62071;SDS011;48031;48.542;13.232;2023-03-15T01:13:35;4.57;;;1.60;;
62071;SDS011;48031;48.542;13.232;2023-03-15T01:17:38;2.60;;;1.58;;
62071;SDS011;48031;48.542;13.232;2023-03-15T01:21:40;2.65;;;1.70;;
62071;SDS011;48031;48.542;13.232;2023-03-15T01:25:42;2.67;;;1.58;;
62071;SDS011;48031;48.542;13.232;2023-03-15T01:29:44;2.08;;;1.45;;
62071;SDS011;48031;48.542;13.232;2023-03-15T01:33:47;6.75;;;1.50;;
62071;SDS011;48031;48.542;13.232;2023-03-15T01:37:50;1.60;;;1.50;;
62071;SDS011;48031;48.542;13.232;2023-03-15T01:41:53;2.08;;;1.80;;
62071;SDS011;48031;48.542;13.232;2023-03-15T01:50:02;1.40;;;1.30;;
62071;SDS011;48031;48.542;13.232;2023-03-15T01:54:09;1.50;;;1.40;;
62071;SDS011;48031;48.542;13.232;2023-03-15T01:58:15;1.45;;;1.20;;
62071;SDS011;48031;48.542;13.232;2023-03-15T02:02:19;2.53;;;1.50;;
62071;SDS011;48031;48.542;13.232;2023-03-15T02:06:24;2.65;;;1.30;;
62071;SDS011;48031;48.542;13.232;2023-03-15T02:10:42;1.85;;;1.60;;
62071;SDS011;48031;48.542;13.232;2023-03-15T02:14:48;1.40;;;1.30;;
62071;SDS011;48031;48.542;13.232;2023-03-15T02:18:54;5.22;;;1.70;;
62071;SDS011;48031;48.542;13.232;2023-03-15T02:22:59;2.55;;;1.60;;
62071;SDS011;48031;48.542;13.232;2023-03-15T02:27:05;2.00;;;1.70;;
62071;SDS011;48031;48.542;13.232;2023-03-15T02:31:07;3.33;;;1.60;;
62071;SDS011;48031;48.542;13.232;2023-03-15T02:35:09;1.60;;;1.25;;
62071;SDS011;48031;48.542;13.232;2023-03-15T02:39:14;1.75;;;1.30;;
62071;SDS011;48031;48.542;13.232;2023-03-15T02:43:19;1.58;;;1.20;;
62071;SDS011;48031;48.542;13.232;2023-03-15T02:47:29;1.70;;;1.40;;
62071;SDS011;48031;48.542;13.232;2023-03-15T02:51:33;3.47;;;1.77;;
62071;SDS011;48031;48.542;13.232;2023-03-15T02:55:35;3.90;;;1.40;;
62071;SDS011;48031;48.542;13.232;2023-03-15T02:59:38;2.83;;;1.50;;
62071;SDS011;48031;48.542;13.232;2023-03-15T03:03:43;2.05;;;1.60;;
62071;SDS011;48031;48.542;13.232;2023-03-15T03:07:47;2.47;;;1.52;;
62071;SDS011;48031;48.542;13.232;2023-03-15T03:11:51;3.50;;;1.70;;
62071;SDS011;48031;48.542;13.232;2023-03-15T03:15:53;3.28;;;1.70;;
62071;SDS011;48031;48.542;13.232;2023-03-15T03:20:03;3.05;;;1.83;;
62071;SDS011;48031;48.542;13.232;2023-03-15T03:24:14;2.92;;;1.80;;
62071;SDS011;48031;48.542;13.232;2023-03-15T03:28:16;1.45;;;1.35;;
62071;SDS011;48031;48.542;13.232;2023-03-15T03:32:18;2.38;;;1.60;;
62071;SDS011;48031;48.542;13.232;2023-03-15T03:36:20;1.52;;;1.42;;
62071;SDS011;48031;48.542;13.232;2023-03-15T03:40:22;1.95;;;1.63;;
62071;SDS011;48031;48.542;13.232;2023-03-15T03:44:24;1.70;;;1.60;;
62071;SDS011;48031;48.542;13.232;2023-03-15T03:48:26;1.90;;;1.80;;
62071;SDS011;48031;48.542;13.232;2023-03-15T03:52:28;1.98;;;1.67;;
62071;SDS011;48031;48.542;13.232;2023-03-15T03:56:39;1.50;;;1.35;;
62071;SDS011;48031;48.542;13.232;2023-03-15T04:00:41;1.60;;;1.50;;
62071;SDS011;48031;48.542;13.232;2023-03-15T04:04:44;2.00;;;1.50;;
62071;SDS011;48031;48.542;13.232;2023-03-15T04:08:51;1.85;;;1.50;;
62071;SDS011;48031;48.542;13.232;2023-03-15T04:13:02;1.10;;;1.10;;
62071;SDS011;48031;48.542;13.232;2023-03-15T04:17:04;1.75;;;1.52;;
62071;SDS011;48031;48.542;13.232;2023-03-15T04:21:06;1.27;;;1.17;;
62071;SDS011;48031;48.542;13.232;2023-03-15T04:25:15;1.30;;;1.20;;
62071;SDS011;48031;48.542;13.232;2023-03-15T04:29:26;1.02;;;1.00;;
62071;SDS011;48031;48.542;13.232;2023-03-15T04:33:46;1.23;;;1.10;;
62071;SDS011;48031;48.542;13.232;2023-03-15T04:38:26;1.33;;;1.23;;
62071;SDS011;48031;48.542;13.232;2023-03-15T04:42:52;1.05;;;1.00;;
62071;SDS011;48031;48.542;13.232;2023-03-15T04:47:09;1.17;;;1.00;;
62071;SDS011;48031;48.542;13.232;2023-03-15T04:51:38;1.33;;;1.15;;
62071;SDS011;48031;48.542;13.232;2023-03-15T04:55:52;1.65;;;1.40;;
62071;SDS011;48031;48.542;13.232;2023-03-15T05:00:08;3.47;;;1.60;;
62071;SDS011;48031;48.542;13.232;2023-03-15T05:04:31;1.55;;;1.10;;
62071;SDS011;48031;48.542;13.232;2023-03-15T05:08:52;2.25;;;1.40;;
62071;SDS011;48031;48.542;13.232;2023-03-15T05:13:10;2.20;;;1.50;;
62071;SDS011;48031;48.542;13.232;2023-03-15T05:17:39;3.78;;;1.70;;
62071;SDS011;48031;48.542;13.232;2023-03-15T05:22:01;8.13;;;2.45;;
62071;SDS011;48031;48.542;13.232;2023-03-15T05:26:27;8.02;;;1.90;;
62071;SDS011;48031;48.542;13.232;2023-03-15T05:31:07;5.38;;;1.95;;
62071;SDS011;48031;48.542;13.232;2023-03-15T05:35:28;3.92;;;1.73;;
62071;SDS011;48031;48.542;13.232;2023-03-15T05:39:53;4.57;;;1.67;;
62071;SDS011;48031;48.542;13.232;2023-03-15T05:44:13;2.95;;;1.88;;
62071;SDS011;48031;48.542;13.232;2023-03-15T05:48:40;6.47;;;1.83;;
62071;SDS011;48031;48.542;13.232;2023-03-15T05:53:05;5.10;;;1.70;;
62071;SDS011;48031;48.542;13.232;2023-03-15T05:57:34;4.00;;;2.10;;
62071;SDS011;48031;48.542;13.232;2023-03-15T06:02:09;5.68;;;2.05;;
62071;SDS011;48031;48.542;13.232;2023-03-15T06:06:23;3.90;;;1.80;;
62071;SDS011;48031;48.542;13.232;2023-03-15T06:10:25;5.78;;;1.75;;
62071;SDS011;48031;48.542;13.232;2023-03-15T06:14:29;3.70;;;1.80;;
62071;SDS011;48031;48.542;13.232;2023-03-15T06:18:35;7.85;;;1.80;;
62071;SDS011;48031;48.542;13.232;2023-03-15T06:22:37;5.65;;;1.95;;
62071;SDS011;48031;48.542;13.232;2023-03-15T06:26:49;6.22;;;1.95;;
62071;SDS011;48031;48.542;13.232;2023-03-15T06:30:52;4.68;;;1.70;;
62071;SDS011;48031;48.542;13.232;2023-03-15T06:35:02;2.63;;;1.88;;
62071;SDS011;48031;48.542;13.232;2023-03-15T06:39:07;5.30;;;2.08;;
62071;SDS011;48031;48.542;13.232;2023-03-15T06:43:12;5.50;;;1.70;;
62071;SDS011;48031;48.542;13.232;2023-03-15T06:47:20;3.05;;;2.10;;
62071;SDS011;48031;48.542;13.232;2023-03-15T06:51:22;7.35;;;2.38;;
62071;SDS011;48031;48.542;13.232;2023-03-15T06:55:24;3.28;;;2.33;;
62071;SDS011;48031;48.542;13.232;2023-03-15T06:59:26;4.88;;;2.22;;
62071;SDS011;48031;48.542;13.232;2023-03-15T07:03:28;5.07;;;2.42;;
62071;SDS011;48031;48.542;13.232;2023-03-15T07:07:30;2.85;;;2.00;;
62071;SDS011;48031;48.542;13.232;2023-03-15T07:11:33;6.65;;;2.55;;
62071;SDS011;48031;48.542;13.232;2023-03-15T07:15:35;3.42;;;2.20;;
62071;SDS011;48031;48.542;13.232;2023-03-15T07:19:38;5.75;;;2.72;;
62071;SDS011;48031;48.542;13.232;2023-03-15T07:23:54;4.05;;;2.50;;
62071;SDS011;48031;48.542;13.232;2023-03-15T07:27:56;3.15;;;2.45;;
62071;SDS011;48031;48.542;13.232;2023-03-15T07:31:57;3.78;;;2.70;;
62071;SDS011;48031;48.542;13.232;2023-03-15T07:36:02;2.63;;;2.05;;
62071;SDS011;48031;48.542;13.232;2023-03-15T07:40:05;3.13;;;2.53;;
62071;SDS011;48031;48.542;13.232;2023-03-15T07:44:10;5.22;;;2.95;;
62071;SDS011;48031;48.542;13.232;2023-03-15T07:48:12;4.78;;;3.10;;
62071;SDS011;48031;48.542;13.232;2023-03-15T07:52:13;5.00;;;3.00;;
62071;SDS011;48031;48.542;13.232;2023-03-15T07:56:15;5.75;;;2.72;;
62071;SDS011;48031;48.542;13.232;2023-03-15T08:00:17;5.68;;;2.85;;
62071;SDS011;48031;48.542;13.232;2023-03-15T08:04:20;7.90;;;3.58;;
62071;SDS011;48031;48.542;13.232;2023-03-15T08:08:21;6.18;;;2.85;;
62071;SDS011;48031;48.542;13.232;2023-03-15T08:12:24;5.88;;;3.28;;
62071;SDS011;48031;48.542;13.232;2023-03-15T08:16:25;10.13;;;3.15;;
62071;SDS011;48031;48.542;13.232;2023-03-15T08:20:27;5.63;;;2.78;;
62071;SDS011;48031;48.542;13.232;2023-03-15T08:24:30;7.30;;;2.90;;
62071;SDS011;48031;48.542;13.232;2023-03-15T08:28:32;4.53;;;2.83;;
62071;SDS011;48031;48.542;13.232;2023-03-15T08:32:35;4.95;;;3.00;;
62071;SDS011;48031;48.542;13.232;2023-03-15T08:36:37;4.38;;;2.80;;
62071;SDS011;48031;48.542;13.232;2023-03-15T08:40:39;5.82;;;3.17;;
62071;SDS011;48031;48.542;13.232;2023-03-15T08:44:41;3.58;;;2.70;;
62071;SDS011;48031;48.542;13.232;2023-03-15T08:48:43;5.15;;;2.78;;
62071;SDS011;48031;48.542;13.232;2023-03-15T08:52:44;4.68;;;2.47;;
62071;SDS011;48031;48.542;13.232;2023-03-15T08:56:46;4.90;;;3.20;;
62071;SDS011;48031;48.542;13.232;2023-03-15T09:00:48;3.85;;;2.75;;
62071;SDS011;48031;48.542;13.232;2023-03-15T09:04:51;5.32;;;2.60;;
62071;SDS011;48031;48.542;13.232;2023-03-15T09:08:54;4.10;;;2.58;;
62071;SDS011;48031;48.542;13.232;2023-03-15T09:12:56;5.55;;;2.45;;
62071;SDS011;48031;48.542;13.232;2023-03-15T09:16:57;4.95;;;2.25;;
62071;SDS011;48031;48.542;13.232;2023-03-15T09:20:59;5.68;;;2.88;;
62071;SDS011;48031;48.542;13.232;2023-03-15T09:25:02;5.47;;;2.33;;
62071;SDS011;48031;48.542;13.232;2023-03-15T09:29:05;2.97;;;2.22;;
62071;SDS011;48031;48.542;13.232;2023-03-15T09:33:08;3.30;;;2.40;;
62071;SDS011;48031;48.542;13.232;2023-03-15T09:37:10;3.13;;;2.08;;
62071;SDS011;48031;48.542;13.232;2023-03-15T09:41:55;4.18;;;2.53;;
62071;SDS011;48031;48.542;13.232;2023-03-15T09:50:03;3.63;;;2.38;;
62071;SDS011;48031;48.542;13.232;2023-03-15T09:58:20;6.38;;;2.75;;
62071;SDS011;48031;48.542;13.232;2023-03-15T10:02:27;3.33;;;2.58;;
62071;SDS011;48031;48.542;13.232;2023-03-15T10:06:30;2.90;;;2.28;;
62071;SDS011;48031;48.542;13.232;2023-03-15T10:10:39;4.28;;;2.63;;
62071;SDS011;48031;48.542;13.232;2023-03-15T10:23:27;5.90;;;3.00;;
62071;SDS011;48031;48.542;13.232;2023-03-15T10:27:49;4.33;;;2.57;;
62071;SDS011;48031;48.542;13.232;2023-03-15T10:31:56;3.08;;;2.20;;
62071;SDS011;48031;48.542;13.232;2023-03-15T10:35:59;3.83;;;2.28;;
62071;SDS011;48031;48.542;13.232;2023-03-15T10:40:12;4.85;;;2.50;;
62071;SDS011;48031;48.542;13.232;2023-03-15T10:44:24;7.73;;;2.60;;
62071;SDS011;48031;48.542;13.232;2023-03-15T10:48:28;4.43;;;2.88;;
62071;SDS011;48031;48.542;13.232;2023-03-15T10:52:39;5.15;;;2.80;;
62071;SDS011;48031;48.542;13.232;2023-03-15T10:56:46;9.13;;;3.30;;
62071;SDS011;48031;48.542;13.232;2023-03-15T11:00:51;3.50;;;2.70;;
62071;SDS011;48031;48.542;13.232;2023-03-15T11:05:02;4.20;;;3.00;;
62071;SDS011;48031;48.542;13.232;2023-03-15T11:09:14;7.43;;;3.90;;
62071;SDS011;48031;48.542;13.232;2023-03-15T11:13:24;7.30;;;3.15;;
62071;SDS011;48031;48.542;13.232;2023-03-15T11:17:34;6.60;;;2.80;;
62071;SDS011;48031;48.542;13.232;2023-03-15T11:21:41;6.15;;;3.28;;
62071;SDS011;48031;48.542;13.232;2023-03-15T11:25:45;4.28;;;3.10;;
62071;SDS011;48031;48.542;13.232;2023-03-15T11:29:55;6.03;;;3.28;;
62071;SDS011;48031;48.542;13.232;2023-03-15T11:38:10;6.10;;;2.88;;
62071;SDS011;48031;48.542;13.232;2023-03-15T11:42:18;8.48;;;4.13;;
62071;SDS011;48031;48.542;13.232;2023-03-15T11:51:02;9.18;;;3.92;;
62071;SDS011;48031;48.542;13.232;2023-03-15T11:55:06;4.65;;;2.67;;
62071;SDS011;48031;48.542;13.232;2023-03-15T11:59:24;4.05;;;2.38;;
62071;SDS011;48031;48.542;13.232;2023-03-15T12:03:35;4.38;;;3.65;;
62071;SDS011;48031;48.542;13.232;2023-03-15T12:07:55;4.47;;;3.25;;
62071;SDS011;48031;48.542;13.232;2023-03-15T12:11:59;5.75;;;3.17;;
62071;SDS011;48031;48.542;13.232;2023-03-15T12:16:04;4.78;;;3.40;;
62071;SDS011;48031;48.542;13.232;2023-03-15T12:24:35;3.83;;;2.28;;
62071;SDS011;48031;48.542;13.232;2023-03-15T12:28:40;4.38;;;2.28;;
62071;SDS011;48031;48.542;13.232;2023-03-15T12:32:52;6.22;;;3.35;;
62071;SDS011;48031;48.542;13.232;2023-03-15T12:37:00;3.88;;;2.65;;
62071;SDS011;48031;48.542;13.232;2023-03-15T12:41:07;6.18;;;3.47;;
62071;SDS011;48031;48.542;13.232;2023-03-15T12:45:33;6.43;;;2.20;;
62071;SDS011;48031;48.542;13.232;2023-03-15T12:49:42;3.30;;;2.40;;
62071;SDS011;48031;48.542;13.232;2023-03-15T12:53:46;4.60;;;2.85;;
62071;SDS011;48031;48.542;13.232;2023-03-15T12:57:51;5.55;;;4.00;;
62071;SDS011;48031;48.542;13.232;2023-03-15T13:01:59;2.67;;;1.90;;
62071;SDS011;48031;48.542;13.232;2023-03-15T13:10:36;4.50;;;4.03;;
62071;SDS011;48031;48.542;13.232;2023-03-15T13:15:05;4.18;;;1.92;;
62071;SDS011;48031;48.542;13.232;2023-03-15T13:19:16;2.92;;;1.63;;
62071;SDS011;48031;48.542;13.232;2023-03-15T13:23:28;3.88;;;1.90;;
62071;SDS011;48031;48.542;13.232;2023-03-15T13:32:21;4.13;;;2.40;;
62071;SDS011;48031;48.542;13.232;2023-03-15T13:40:54;3.35;;;1.90;;
62071;SDS011;48031;48.542;13.232;2023-03-15T13:49:04;4.43;;;1.90;;
62071;SDS011;48031;48.542;13.232;2023-03-15T13:53:09;3.40;;;1.83;;
62071;SDS011;48031;48.542;13.232;2023-03-15T13:57:14;3.13;;;1.98;;
62071;SDS011;48031;48.542;13.232;2023-03-15T14:01:19;2.28;;;1.80;;
62071;SDS011;48031;48.542;13.232;2023-03-15T14:05:24;2.53;;;1.90;;
62071;SDS011;48031;48.542;13.232;2023-03-15T14:09:28;3.42;;;1.60;;
62071;SDS011;48031;48.542;13.232;2023-03-15T14:13:33;3.60;;;2.03;;
62071;SDS011;48031;48.542;13.232;2023-03-15T14:17:59;2.28;;;1.67;;
62071;SDS011;48031;48.542;13.232;2023-03-15T14:22:16;2.75;;;1.60;;
62071;SDS011;48031;48.542;13.232;2023-03-15T14:26:20;2.85;;;1.80;;
62071;SDS011;48031;48.542;13.232;2023-03-15T14:30:27;2.80;;;1.70;;
62071;SDS011;48031;48.542;13.232;2023-03-15T14:34:36;4.28;;;1.95;;
62071;SDS011;48031;48.542;13.232;2023-03-15T14:38:49;3.30;;;1.92;;
62071;SDS011;48031;48.542;13.232;2023-03-15T14:42:53;4.18;;;1.80;;
62071;SDS011;48031;48.542;13.232;2023-03-15T14:46:55;4.80;;;1.67;;
62071;SDS011;48031;48.542;13.232;2023-03-15T14:50:58;2.83;;;1.75;;
62071;SDS011;48031;48.542;13.232;2023-03-15T14:55:00;2.60;;;1.65;;
62071;SDS011;48031;48.542;13.232;2023-03-15T14:59:08;6.68;;;1.83;;
62071;SDS011;48031;48.542;13.232;2023-03-15T15:03:14;4.57;;;2.08;;
62071;SDS011;48031;48.542;13.232;2023-03-15T15:07:38;3.90;;;2.00;;
62071;SDS011;48031;48.542;13.232;2023-03-15T15:11:41;4.03;;;2.00;;
62071;SDS011;48031;48.542;13.232;2023-03-15T15:15:42;4.22;;;2.63;;
62071;SDS011;48031;48.542;13.232;2023-03-15T15:19:56;2.22;;;1.75;;
62071;SDS011;48031;48.542;13.232;2023-03-15T15:23:58;2.67;;;1.60;;
62071;SDS011;48031;48.542;13.232;2023-03-15T15:28:03;2.10;;;1.90;;
62071;SDS011;48031;48.542;13.232;2023-03-15T15:32:04;3.95;;;2.45;;
62071;SDS011;48031;48.542;13.232;2023-03-15T15:36:09;3.70;;;2.35;;
62071;SDS011;48031;48.542;13.232;2023-03-15T15:40:31;4.10;;;2.45;;
62071;SDS011;48031;48.542;13.232;2023-03-15T15:44:33;4.25;;;1.77;;
62071;SDS011;48031;48.542;13.232;2023-03-15T15:48:35;2.28;;;1.80;;
62071;SDS011;48031;48.542;13.232;2023-03-15T15:52:38;5.30;;;2.22;;
62071;SDS011;48031;48.542;13.232;2023-03-15T15:56:52;4.65;;;2.50;;
62071;SDS011;48031;48.542;13.232;2023-03-15T16:00:56;4.35;;;2.80;;
62071;SDS011;48031;48.542;13.232;2023-03-15T16:04:59;4.55;;;2.35;;
62071;SDS011;48031;48.542;13.232;2023-03-15T16:09:01;5.38;;;2.50;;
62071;SDS011;48031;48.542;13.232;2023-03-15T16:13:08;3.67;;;2.30;;
62071;SDS011;48031;48.542;13.232;2023-03-15T16:17:18;4.25;;;2.20;;
62071;SDS011;48031;48.542;13.232;2023-03-15T16:25:31;6.68;;;3.17;;
62071;SDS011;48031;48.542;13.232;2023-03-15T16:29:36;6.55;;;3.70;;
62071;SDS011;48031;48.542;13.232;2023-03-15T16:33:38;10.52;;;4.72;;
62071;SDS011;48031;48.542;13.232;2023-03-15T16:37:40;9.40;;;4.30;;
62071;SDS011;48031;48.542;13.232;2023-03-15T16:41:42;7.30;;;3.33;;
62071;SDS011;48031;48.542;13.232;2023-03-15T16:45:44;7.70;;;2.80;;
62071;SDS011;48031;48.542;13.232;2023-03-15T16:49:46;3.38;;;2.28;;
62071;SDS011;48031;48.542;13.232;2023-03-15T16:53:48;5.97;;;2.65;;
62071;SDS011;48031;48.542;13.232;2023-03-15T16:57:50;3.72;;;2.53;;
62071;SDS011;48031;48.542;13.232;2023-03-15T17:01:52;5.15;;;2.42;;
62071;SDS011;48031;48.542;13.232;2023-03-15T17:05:55;4.00;;;2.40;;
62071;SDS011;48031;48.542;13.232;2023-03-15T17:09:58;2.35;;;2.10;;
62071;SDS011;48031;48.542;13.232;2023-03-15T17:14:08;3.85;;;2.10;;
62071;SDS011;48031;48.542;13.232;2023-03-15T17:18:19;4.55;;;2.80;;
62071;SDS011;48031;48.542;13.232;2023-03-15T17:22:23;5.15;;;2.47;;
62071;SDS011;48031;48.542;13.232;2023-03-15T17:26:27;3.63;;;2.30;;
62071;SDS011;48031;48.542;13.232;2023-03-15T17:30:34;3.72;;;2.30;;
62071;SDS011;48031;48.542;13.232;2023-03-15T17:34:37;2.58;;;2.00;;
62071;SDS011;48031;48.542;13.232;2023-03-15T17:38:39;3.78;;;2.15;;
62071;SDS011;48031;48.542;13.232;2023-03-15T17:42:42;3.92;;;2.30;;
62071;SDS011;48031;48.542;13.232;2023-03-15T17:46:44;2.92;;;2.08;;
62071;SDS011;48031;48.542;13.232;2023-03-15T17:50:46;2.70;;;1.73;;
62071;SDS011;48031;48.542;13.232;2023-03-15T17:54:48;2.10;;;1.90;;
62071;SDS011;48031;48.542;13.232;2023-03-15T17:58:50;4.13;;;2.40;;
62071;SDS011;48031;48.542;13.232;2023-03-15T18:02:53;4.45;;;2.88;;
62071;SDS011;48031;48.542;13.232;2023-03-15T18:06:57;3.22;;;2.28;;
62071;SDS011;48031;48.542;13.232;2023-03-15T18:10:59;2.63;;;1.95;;
62071;SDS011;48031;48.542;13.232;2023-03-15T18:15:01;1.73;;;1.58;;
62071;SDS011;48031;48.542;13.232;2023-03-15T18:19:03;1.92;;;1.63;;
62071;SDS011;48031;48.542;13.232;2023-03-15T18:23:05;2.65;;;2.10;;
62071;SDS011;48031;48.542;13.232;2023-03-15T18:27:07;2.40;;;1.80;;
62071;SDS011;48031;48.542;13.232;2023-03-15T18:31:12;2.38;;;1.58;;
62071;SDS011;48031;48.542;13.232;2023-03-15T18:35:25;3.30;;;2.05;;
62071;SDS011;48031;48.542;13.232;2023-03-15T18:39:32;17.08;;;6.57;;
62071;SDS011;48031;48.542;13.232;2023-03-15T18:43:34;13.98;;;6.82;;
62071;SDS011;48031;48.542;13.232;2023-03-15T18:47:36;6.03;;;3.40;;
62071;SDS011;48031;48.542;13.232;2023-03-15T18:51:37;5.47;;;2.75;;
62071;SDS011;48031;48.542;13.232;2023-03-15T18:55:39;4.40;;;2.53;;
62071;SDS011;48031;48.542;13.232;2023-03-15T18:59:41;2.75;;;2.30;;
62071;SDS011;48031;48.542;13.232;2023-03-15T19:03:43;4.10;;;2.40;;
62071;SDS011;48031;48.542;13.232;2023-03-15T19:07:45;3.40;;;2.42;;
62071;SDS011;48031;48.542;13.232;2023-03-15T19:11:48;4.35;;;2.45;;
62071;SDS011;48031;48.542;13.232;2023-03-15T19:15:50;4.40;;;2.25;;
62071;SDS011;48031;48.542;13.232;2023-03-15T19:19:51;4.72;;;2.55;;
62071;SDS011;48031;48.542;13.232;2023-03-15T19:23:53;5.15;;;2.92;;
62071;SDS011;48031;48.542;13.232;2023-03-15T19:27:58;5.40;;;2.28;;
62071;SDS011;48031;48.542;13.232;2023-03-15T19:32:00;2.25;;;1.90;;
62071;SDS011;48031;48.542;13.232;2023-03-15T19:36:02;4.70;;;2.35;;
62071;SDS011;48031;48.542;13.232;2023-03-15T19:40:05;4.75;;;2.47;;
62071;SDS011;48031;48.542;13.232;2023-03-15T19:44:10;3.45;;;2.20;;
62071;SDS011;48031;48.542;13.232;2023-03-15T19:48:12;2.10;;;1.90;;
62071;SDS011;48031;48.542;13.232;2023-03-15T19:52:16;3.58;;;2.40;;
62071;SDS011;48031;48.542;13.232;2023-03-15T19:56:19;2.78;;;2.20;;
62071;SDS011;48031;48.542;13.232;2023-03-15T20:00:21;3.33;;;2.45;;
62071;SDS011;48031;48.542;13.232;2023-03-15T20:04:24;2.15;;;1.90;;
62071;SDS011;48031;48.542;13.232;2023-03-15T20:08:26;4.20;;;2.10;;
62071;SDS011;48031;48.542;13.232;2023-03-15T20:12:28;5.88;;;2.33;;
62071;SDS011;48031;48.542;13.232;2023-03-15T20:16:29;2.70;;;1.90;;
62071;SDS011;48031;48.542;13.232;2023-03-15T20:20:31;2.65;;;2.10;;
62071;SDS011;48031;48.542;13.232;2023-03-15T20:24:33;4.13;;;2.20;;
62071;SDS011;48031;48.542;13.232;2023-03-15T20:28:37;12.73;;;4.45;;
62071;SDS011;48031;48.542;13.232;2023-03-15T20:32:40;12.10;;;3.67;;
62071;SDS011;48031;48.542;13.232;2023-03-15T20:36:42;10.00;;;3.65;;
62071;SDS011;48031;48.542;13.232;2023-03-15T20:40:45;7.47;;;3.13;;
62071;SDS011;48031;48.542;13.232;2023-03-15T20:44:46;8.07;;;3.15;;
62071;SDS011;48031;48.542;13.232;2023-03-15T20:48:48;3.55;;;2.67;;
62071;SDS011;48031;48.542;13.232;2023-03-15T20:52:52;2.88;;;2.20;;
62071;SDS011;48031;48.542;13.232;2023-03-15T20:56:54;2.95;;;2.20;;
62071;SDS011;48031;48.542;13.232;2023-03-15T21:01:00;2.83;;;2.40;;
62071;SDS011;48031;48.542;13.232;2023-03-15T21:05:05;3.50;;;2.42;;
62071;SDS011;48031;48.542;13.232;2023-03-15T21:09:08;3.55;;;2.00;;
62071;SDS011;48031;48.542;13.232;2023-03-15T21:13:10;1.80;;;1.70;;
62071;SDS011;48031;48.542;13.232;2023-03-15T21:17:12;2.97;;;1.95;;
62071;SDS011;48031;48.542;13.232;2023-03-15T21:21:14;4.13;;;2.38;;
62071;SDS011;48031;48.542;13.232;2023-03-15T21:25:16;2.75;;;2.25;;
62071;SDS011;48031;48.542;13.232;2023-03-15T21:29:18;2.00;;;1.80;;
62071;SDS011;48031;48.542;13.232;2023-03-15T21:33:20;1.98;;;1.83;;
62071;SDS011;48031;48.542;13.232;2023-03-15T21:37:24;2.88;;;1.70;;
62071;SDS011;48031;48.542;13.232;2023-03-15T21:41:26;1.60;;;1.50;;
62071;SDS011;48031;48.542;13.232;2023-03-15T21:45:27;2.15;;;1.90;;
62071;SDS011;48031;48.542;13.232;2023-03-15T21:49:30;2.67;;;2.40;;
62071;SDS011;48031;48.542;13.232;2023-03-15T21:53:35;3.10;;;1.92;;
62071;SDS011;48031;48.542;13.232;2023-03-15T21:57:37;2.42;;;2.10;;
62071;SDS011;48031;48.542;13.232;2023-03-15T22:01:39;2.33;;;2.13;;
62071;SDS011;48031;48.542;13.232;2023-03-15T22:05:43;3.70;;;2.20;;
62071;SDS011;48031;48.542;13.232;2023-03-15T22:09:46;3.72;;;2.20;;
62071;SDS011;48031;48.542;13.232;2023-03-15T22:13:48;3.05;;;2.40;;
62071;SDS011;48031;48.542;13.232;2023-03-15T22:17:50;2.70;;;2.17;;
62071;SDS011;48031;48.542;13.232;2023-03-15T22:21:52;2.20;;;1.80;;
62071;SDS011;48031;48.542;13.232;2023-03-15T22:25:54;2.47;;;1.90;;
62071;SDS011;48031;48.542;13.232;2023-03-15T22:29:56;2.65;;;2.03;;
62071;SDS011;48031;48.542;13.232;2023-03-15T22:33:58;2.13;;;1.80;;
62071;SDS011;48031;48.542;13.232;2023-03-15T22:38:00;1.95;;;1.75;;
62071;SDS011;48031;48.542;13.232;2023-03-15T22:42:10;1.95;;;1.80;;
62071;SDS011;48031;48.542;13.232;2023-03-15T22:46:12;2.47;;;1.92;;
62071;SDS011;48031;48.542;13.232;2023-03-15T22:50:14;2.08;;;1.85;;
62071;SDS011;48031;48.542;13.232;2023-03-15T22:54:16;2.75;;;2.10;;
62071;SDS011;48031;48.542;13.232;2023-03-15T22:58:18;2.55;;;2.20;;
62071;SDS011;48031;48.542;13.232;2023-03-15T23:02:20;5.13;;;2.85;;
62071;SDS011;48031;48.542;13.232;2023-03-15T23:06:22;3.47;;;2.25;;
62071;SDS011;48031;48.542;13.232;2023-03-15T23:10:24;4.40;;;2.65;;
62071;SDS011;48031;48.542;13.232;2023-03-15T23:14:26;3.53;;;2.50;;
62071;SDS011;48031;48.542;13.232;2023-03-15T23:18:31;4.28;;;2.95;;
62071;SDS011;48031;48.542;13.232;2023-03-15T23:22:34;4.00;;;2.58;;
62071;SDS011;48031;48.542;13.232;2023-03-15T23:26:36;3.55;;;2.10;;
62071;SDS011;48031;48.542;13.232;2023-03-15T23:30:38;3.00;;;2.05;;
62071;SDS011;48031;48.542;13.232;2023-03-15T23:34:40;3.20;;;2.60;;
62071;SDS011;48031;48.542;13.232;2023-03-15T23:38:43;1.73;;;1.63;;
62071;SDS011;48031;48.542;13.232;2023-03-15T23:42:45;2.30;;;1.80;;
62071;SDS011;48031;48.542;13.232;2023-03-15T23:46:48;2.10;;;1.80;;
62071;SDS011;48031;48.542;13.232;2023-03-15T23:50:51;1.98;;;1.83;;
62071;SDS011;48031;48.542;13.232;2023-03-15T23:54:57;2.45;;;2.25;;
62071;SDS011;48031;48.542;13.232;2023-03-15T23:58:58;3.80;;;2.63;;
